Bay City, TX

11:01 AM CDT on July 04, 2015 (GMT -0500)
Bay City | | Change Station
CLOSE
Current Station
Airport
Location: Bay City,
Elevation: 46 ft
Nearby Weather Stations

Elev 46 ft 28.97 °N, 95.86 °W | Updated 26 minutes ago

Partly Cloudy
Partly Cloudy
89 °F
Feels Like 100 °F
N
10
Wind Variable Wind from South
Gusts 16 mph

Today
High -- | Low -- °F
--% Chance of Precip.
Yesterday
High -- | Low -- °F
Precip. -- in
6:29 AM 8:26 PM
Waning Gibbous, 91% visible
Pressure 30.03 in
Visibility 10.0 miles
Clouds Scattered Clouds 2700 ft
Scattered Clouds 3300 ft
Scattered Clouds 4200 ft
Heat Index 100 °F
Dew Point 75 °F
Humidity 64%
Rainfall 0.00 in
Snow Depth Not available.
UV 6 out of 12
Pollen 3.60 out of 12
Air Quality Not available.
Flu Activity Not available.
METAR KBYY 041535Z AUTO 17009G14KT 10SM SCT027 SCT033 SCT042 32/23 A3003 RMK AO2 T03170241

More Conditions Fewer Conditions

Pressure 30.03 in
Visibility 10.0 miles
Clouds Scattered Clouds 2700 ft
Scattered Clouds 3300 ft
Scattered Clouds 4200 ft
Heat Index 100 °F
Dew Point 75 °F
Humidity 64%
Rainfall 0.00 in
Snow Depth Not available.
UV 6 out of 12
Pollen 3.60 out of 12
Air Quality Not available.
Flu Activity Not available.
METAR KBYY 041535Z AUTO 17009G14KT 10SM SCT027 SCT033 SCT042 32/23 A3003 RMK AO2 T03170241

More Conditions Fewer Conditions

10-Day Weather Forecast

×

Almanac

Astronomy

Jul. 04, 2015 Rise Set
Actual Time
Civil Twilight
Nautical Twilight
Astronomical Twilight
Moon
Length of Visible Light
Length of Day
Tomorrow will be .
, % of the Moon is Illuminated

Today's Extremes

State Highs State Lows

Community

WunderPhotos

Upload Photos

1,834,994 photos uploaded!

WunderBlogs® & News

Nearby

Air Quality

  Air Quality AQ Index Pollutant
Not available.

Snow Depth

Station Depth Elevation

Earthquake Activity

City Distance Mag. Time & Date
Minimum magnitude displayed is 2.5.

Coastal Water Temperatures

Place Temperature

Stations

Nearby Weather Stations

Station Location Temp. Windchill Dew Point Humidity Wind Precip. Elev Updated Type